Hertford, North Carolina
Current Conditions -  °F | °C
As of 2:55 PM on Friday 24 Oct 2014 (Local Time) from KEDE Reporting Station
Clear Clear  
Wind Chill: 69°   Ceiling: Unl
Heat Index: 69°   Visibility: 10mi
Dew Point: 47°   Wind: 8mph
Humidity: 46%   Direction: 290°WNW
Pressure: 29.94"   Gusts: 16mph
Location:  36.19°N, 76.47°W
Report Text: KEDE 241855Z AUTO 29007G14KT 10SM CLR 21/09 A2994 RMK AO2 T02060085
Loading
Personal Weather Stations






























Interactive Weather Map
Tropical Storm Tracking
New forecast layout! Learn more

10-Day Weather Forecast

Advertisements
Track Severe Weather on mobile